createdAt,value
2023-05-05T00:01:09.274Z,99662.81
2023-05-05T00:03:36.296Z,99667.25
2023-05-05T00:06:04.322Z,99673.50
2023-05-05T00:08:31.110Z,99659.66
2023-05-05T00:10:57.783Z,99654.72
2023-05-05T00:13:24.760Z,99658.09
2023-05-05T00:15:52.584Z,99652.59
2023-05-05T00:18:19.672Z,99653.38
2023-05-05T00:20:47.568Z,99649.72
2023-05-05T00:23:17.885Z,99649.63
2023-05-05T00:25:44.599Z,99644.66
2023-05-05T00:28:11.543Z,99642.00
2023-05-05T00:30:39.905Z,99633.16
2023-05-05T00:33:06.726Z,99639.91
2023-05-05T00:35:33.751Z,99628.19
2023-05-05T00:38:00.484Z,99633.91
2023-05-05T00:40:28.320Z,99622.69
2023-05-05T00:42:54.956Z,99625.84
2023-05-05T00:45:21.629Z,99616.97
2023-05-05T00:47:51.540Z,99619.03
2023-05-05T00:50:23.749Z,99622.66
2023-05-05T00:52:51.810Z,99623.41
2023-05-05T00:55:19.084Z,99612.72
2023-05-05T00:57:45.978Z,99614.28
2023-05-05T01:00:13.105Z,99610.34
2023-05-05T01:02:40.183Z,99617.88
2023-05-05T01:05:10.954Z,99615.25
2023-05-05T01:07:43.570Z,99613.69
2023-05-05T01:10:36.936Z,99619.69
2023-05-05T01:13:15.646Z,99614.72
2023-05-05T01:15:50.058Z,99616.53
2023-05-05T01:18:38.166Z,99612.09
2023-05-05T01:21:16.294Z,99614.72
2023-05-05T01:24:00.938Z,99617.28
2023-05-05T01:27:03.058Z,99617.00
2023-05-05T01:29:51.409Z,99616.47
2023-05-05T01:32:25.573Z,99615.72
2023-05-05T01:35:05.410Z,99609.97
2023-05-05T01:37:55.636Z,99616.75
2023-05-05T01:40:26.813Z,99615.69
2023-05-05T01:42:55.489Z,99622.72
2023-05-05T01:45:28.076Z,99621.44
2023-05-05T01:47:56.401Z,99618.28
2023-05-05T01:50:24.522Z,99617.50
2023-05-05T01:52:52.706Z,99616.47
2023-05-05T01:55:20.744Z,99607.84
2023-05-05T01:57:49.045Z,99612.28
2023-05-05T02:00:18.001Z,99614.38
2023-05-05T02:02:49.728Z,99601.63
2023-05-05T02:05:19.509Z,99601.28
2023-05-05T02:07:46.885Z,99594.78
2023-05-05T02:10:14.449Z,99599.13
2023-05-05T02:12:44.256Z,99596.28
2023-05-05T02:15:12.652Z,99598.94
2023-05-05T02:17:42.277Z,99589.56
2023-05-05T02:20:11.840Z,99592.47
2023-05-05T02:22:38.660Z,99586.19
2023-05-05T02:25:06.165Z,99581.25
2023-05-05T02:27:35.984Z,99581.19
2023-05-05T02:30:08.604Z,99579.06
2023-05-05T02:32:50.474Z,99587.63
2023-05-05T02:35:22.489Z,99584.78
2023-05-05T02:38:01.826Z,99575.16
2023-05-05T02:40:35.253Z,99576.44
2023-05-05T02:43:06.855Z,99579.28
2023-05-05T02:45:33.844Z,99573.59
2023-05-05T02:48:04.216Z,99578.56
2023-05-05T02:50:34.240Z,99584.56
2023-05-05T02:53:12.024Z,99584.31
2023-05-05T02:55:50.612Z,99583.28
2023-05-05T02:58:29.095Z,99590.59
2023-05-05T03:01:16.050Z,99597.88
2023-05-05T03:03:59.119Z,99592.19
2023-05-05T03:06:28.545Z,99588.81
2023-05-05T03:09:25.218Z,99591.69
2023-05-05T03:12:03.918Z,99586.72
2023-05-05T03:14:41.901Z,99595.28
2023-05-05T03:17:12.567Z,99585.84
2023-05-05T03:19:44.596Z,99588.47
2023-05-05T03:22:11.603Z,99587.78
2023-05-05T03:24:41.792Z,99580.22
2023-05-05T03:27:10.278Z,99584.44
2023-05-05T03:29:39.233Z,99581.81
2023-05-05T03:32:10.440Z,99587.53
2023-05-05T03:34:37.866Z,99583.13
2023-05-05T03:37:05.736Z,99586.50
2023-05-05T03:39:32.552Z,99594.06
2023-05-05T03:41:59.792Z,99590.69
2023-05-05T03:44:30.550Z,99581.84
2023-05-05T03:46:57.200Z,99590.69
2023-05-05T03:49:24.261Z,99580.50
2023-05-05T03:51:51.784Z,99588.72
2023-05-05T03:54:18.385Z,99591.06
2023-05-05T03:56:45.059Z,99591.31
2023-05-05T03:59:11.731Z,99597.28
2023-05-05T04:01:38.694Z,99594.50
2023-05-05T04:04:05.664Z,99597.13
2023-05-05T04:06:32.736Z,99598.69
2023-05-05T04:08:59.277Z,99588.28
2023-05-05T04:11:26.260Z,99594.78
2023-05-05T04:13:54.681Z,99592.44
2023-05-05T04:16:21.986Z,99597.31
2023-05-05T04:18:49.342Z,99592.09
2023-05-05T04:21:17.423Z,99598.09
2023-05-05T04:23:44.544Z,99596.09
2023-05-05T04:26:11.373Z,99593.53
2023-05-05T04:28:38.078Z,99597.19
2023-05-05T04:31:05.229Z,99600.59
2023-05-05T04:33:35.736Z,99602.16
2023-05-05T04:36:02.770Z,99591.25
2023-05-05T04:38:29.578Z,99601.44
2023-05-05T04:40:56.499Z,99600.94
2023-05-05T04:43:23.181Z,99601.44
2023-05-05T04:45:56.315Z,99606.91
2023-05-05T04:48:27.275Z,99610.03
2023-05-05T04:50:53.955Z,99616.28
2023-05-05T04:53:20.519Z,99618.88
2023-05-05T04:55:47.215Z,99618.91
2023-05-05T04:58:13.797Z,99615.28
2023-05-05T05:00:40.725Z,99615.31
2023-05-05T05:03:08.255Z,99621.31
2023-05-05T05:05:34.861Z,99609.63
2023-05-05T05:08:01.737Z,99607.06
2023-05-05T05:10:28.692Z,99614.13
2023-05-05T05:12:55.376Z,99609.19
2023-05-05T05:15:22.063Z,99606.59
2023-05-05T05:17:48.797Z,99606.09
2023-05-05T05:20:15.548Z,99611.31
2023-05-05T05:22:42.261Z,99615.75
2023-05-05T05:25:13.515Z,99615.22
2023-05-05T05:27:41.656Z,99616.78
2023-05-05T05:30:09.812Z,99615.75
2023-05-05T05:32:36.832Z,99618.38
2023-05-05T05:35:03.966Z,99617.41
2023-05-05T05:37:31.474Z,99620.81
2023-05-05T05:39:59.093Z,99621.88
2023-05-05T05:42:27.049Z,99620.31
2023-05-05T05:44:53.779Z,99630.50
2023-05-05T05:47:20.437Z,99622.41
2023-05-05T05:49:47.122Z,99620.03
2023-05-05T05:52:13.868Z,99620.56
2023-05-05T05:54:40.960Z,99620.00
2023-05-05T05:57:08.643Z,99616.81
2023-05-05T05:59:35.360Z,99617.56
2023-05-05T06:02:02.334Z,99619.09
2023-05-05T06:04:30.885Z,99620.56
2023-05-05T06:06:57.601Z,99615.28
2023-05-05T06:09:25.249Z,99615.72
2023-05-05T06:11:53.381Z,99617.41
2023-05-05T06:14:20.706Z,99620.38
2023-05-05T06:16:47.664Z,99620.69
2023-05-05T06:19:18.778Z,99619.78
2023-05-05T06:21:45.429Z,99623.34
2023-05-05T06:24:12.082Z,99614.47
2023-05-05T06:26:38.825Z,99615.09
2023-05-05T06:29:05.469Z,99626.75
2023-05-05T06:31:32.180Z,99615.44
2023-05-05T06:33:58.817Z,99628.75
2023-05-05T06:36:25.509Z,99620.94
2023-05-05T06:38:52.228Z,99625.25
2023-05-05T06:41:18.858Z,99627.66
2023-05-05T06:43:45.945Z,99620.28
2023-05-05T06:46:13.863Z,99620.94
2023-05-05T06:48:40.593Z,99618.69
2023-05-05T06:51:07.290Z,99623.25
2023-05-05T06:53:33.923Z,99612.34
2023-05-05T06:56:00.461Z,99611.91
2023-05-05T06:58:27.131Z,99609.66
2023-05-05T07:00:54.160Z,99605.16
2023-05-05T07:03:20.920Z,99606.38
2023-05-05T07:05:47.607Z,99602.38
2023-05-05T07:08:14.795Z,99603.16
2023-05-05T07:10:41.853Z,99609.16
2023-05-05T07:13:08.556Z,99610.03
2023-05-05T07:15:35.542Z,99607.19
2023-05-05T07:18:02.343Z,99608.75
2023-05-05T07:20:29.000Z,99611.34
2023-05-05T07:22:55.926Z,99605.88
2023-05-05T07:25:22.567Z,99613.16
2023-05-05T07:27:49.233Z,99604.50
2023-05-05T07:30:18.468Z,99600.91
2023-05-05T07:32:46.109Z,99609.81
2023-05-05T07:35:12.913Z,99608.84
2023-05-05T07:37:39.570Z,99605.00
2023-05-05T07:40:07.161Z,99612.03
2023-05-05T07:42:33.880Z,99617.97
2023-05-05T07:45:00.702Z,99614.22
2023-05-05T07:47:27.327Z,99609.91
2023-05-05T07:49:54.421Z,99608.53
2023-05-05T07:52:30.002Z,99611.81
2023-05-05T07:55:01.035Z,99615.72
2023-05-05T07:57:28.414Z,99611.06
2023-05-05T07:59:55.128Z,99610.75
2023-05-05T08:02:21.952Z,99608.75
2023-05-05T08:04:50.073Z,99612.16
2023-05-05T08:07:16.756Z,99605.34
2023-05-05T08:09:44.045Z,99607.94
2023-05-05T08:12:12.262Z,99606.19
2023-05-05T08:14:40.464Z,99600.50
2023-05-05T08:17:07.452Z,99601.16
2023-05-05T08:19:34.202Z,99606.94
2023-05-05T08:22:01.591Z,99605.16
2023-05-05T08:24:28.567Z,99605.00
2023-05-05T08:26:56.152Z,99594.53
2023-05-05T08:29:23.223Z,99597.97
2023-05-05T08:31:49.866Z,99593.25
2023-05-05T08:34:16.508Z,99595.78
2023-05-05T08:36:44.062Z,99595.97
2023-05-05T08:39:10.753Z,99599.13
2023-05-05T08:41:37.424Z,99595.44
2023-05-05T08:44:04.115Z,99584.19
2023-05-05T08:46:31.153Z,99588.66
2023-05-05T08:48:58.792Z,99580.50
2023-05-05T08:51:31.377Z,99580.97
2023-05-05T08:54:02.614Z,99582.97
2023-05-05T08:56:36.197Z,99576.22
2023-05-05T08:59:03.248Z,99576.00
2023-05-05T09:01:32.234Z,99576.91
2023-05-05T09:03:59.220Z,99580.44
2023-05-05T09:06:27.357Z,99585.19
2023-05-05T09:08:54.534Z,99583.75
2023-05-05T09:11:22.590Z,99576.97
2023-05-05T09:13:49.830Z,99579.84
2023-05-05T09:16:16.507Z,99573.56
2023-05-05T09:18:43.322Z,99571.25
2023-05-05T09:21:24.610Z,99568.78
2023-05-05T09:24:08.602Z,99578.28
2023-05-05T09:26:43.488Z,99571.16
2023-05-05T09:29:17.115Z,99579.19
2023-05-05T09:31:43.917Z,99571.34
2023-05-05T09:34:15.853Z,99569.41
2023-05-05T09:36:44.744Z,99586.97
2023-05-05T09:39:11.584Z,99582.50
2023-05-05T09:41:43.578Z,99585.44
2023-05-05T09:44:11.537Z,99592.53
2023-05-05T09:46:49.042Z,99590.81
2023-05-05T09:49:20.025Z,99590.16
2023-05-05T09:51:47.616Z,99590.53
2023-05-05T09:54:24.060Z,99583.53
2023-05-05T09:56:52.528Z,99586.91
2023-05-05T09:59:19.896Z,99582.44
2023-05-05T10:01:47.431Z,99581.19
2023-05-05T10:04:28.512Z,99581.19
2023-05-05T10:06:58.885Z,99569.47
2023-05-05T10:09:26.158Z,99567.28
2023-05-05T10:11:53.840Z,99575.81
2023-05-05T10:14:20.786Z,99568.94
2023-05-05T10:16:50.651Z,99559.53
2023-05-05T10:19:21.329Z,99557.03
2023-05-05T10:21:51.169Z,99551.69
2023-05-05T10:24:40.541Z,99542.69
2023-05-05T10:27:20.042Z,99549.72
2023-05-05T10:30:01.297Z,99548.50
2023-05-05T10:32:56.066Z,99553.53
2023-05-05T10:35:28.570Z,99542.13
2023-05-05T10:37:55.964Z,99547.28
2023-05-05T10:40:22.680Z,99550.91
2023-05-05T10:42:50.860Z,99552.25
2023-05-05T10:45:17.688Z,99550.81
2023-05-05T10:47:44.581Z,99543.88
2023-05-05T10:50:21.750Z,99538.28
2023-05-05T10:53:24.083Z,99543.88
2023-05-05T10:56:10.747Z,99543.25
2023-05-05T10:58:51.649Z,99533.91
2023-05-05T11:01:33.427Z,99526.16
2023-05-05T11:04:35.873Z,99525.28
2023-05-05T11:07:27.394Z,99525.13
2023-05-05T11:09:55.999Z,99518.19
2023-05-05T11:12:22.643Z,99508.16
2023-05-05T11:15:27.611Z,99508.81
2023-05-05T11:17:55.652Z,99508.47
2023-05-05T11:20:40.542Z,99508.84
2023-05-05T11:23:07.325Z,99513.53
2023-05-05T11:25:37.555Z,99502.72
2023-05-05T11:28:17.935Z,99507.78
2023-05-05T11:30:57.180Z,99496.03
2023-05-05T11:33:38.833Z,99493.69
2023-05-05T11:36:07.155Z,99501.25
2023-05-05T11:38:53.070Z,99502.41
2023-05-05T11:41:32.026Z,99493.94
2023-05-05T11:44:16.612Z,99490.88
2023-05-05T11:46:52.390Z,99488.78
2023-05-05T11:49:32.090Z,99488.56
2023-05-05T11:52:02.597Z,99482.84
2023-05-05T11:54:30.243Z,99480.41
2023-05-05T11:57:08.395Z,99479.41
2023-05-05T11:59:40.252Z,99479.28
2023-05-05T12:02:06.965Z,99480.25
2023-05-05T12:04:33.658Z,99474.78
2023-05-05T12:07:00.605Z,99474.59
2023-05-05T12:09:27.552Z,99469.66
2023-05-05T12:11:58.386Z,99468.66
2023-05-05T12:14:25.909Z,99455.69
2023-05-05T12:17:07.101Z,99460.19
2023-05-05T12:19:33.758Z,99452.63
2023-05-05T12:22:04.704Z,99463.63
2023-05-05T12:24:31.544Z,99460.38
2023-05-05T12:27:08.792Z,99462.50
2023-05-05T12:29:35.457Z,99456.19
2023-05-05T12:32:02.164Z,99455.59
2023-05-05T12:34:29.068Z,99449.34
2023-05-05T12:36:55.954Z,99464.81
2023-05-05T12:39:22.544Z,99463.00
2023-05-05T12:41:49.691Z,99460.28
2023-05-05T12:44:16.578Z,99452.59
2023-05-05T12:46:47.455Z,99456.69
2023-05-05T12:49:14.796Z,99442.00
2023-05-05T12:51:56.956Z,99447.53
2023-05-05T12:54:24.972Z,99447.59
2023-05-05T12:56:51.643Z,99447.03
2023-05-05T12:59:21.085Z,99447.56
2023-05-05T13:01:58.418Z,99443.91
2023-05-05T13:04:27.345Z,99430.88
2023-05-05T13:07:11.088Z,99439.38
2023-05-05T13:09:38.290Z,99427.41
2023-05-05T13:12:05.164Z,99427.56
2023-05-05T13:14:32.395Z,99427.63
2023-05-05T13:16:59.069Z,99437.41
2023-05-05T13:19:25.785Z,99433.69
2023-05-05T13:21:53.133Z,99419.44
2023-05-05T13:24:28.745Z,99421.59
2023-05-05T13:27:02.923Z,99417.03
2023-05-05T13:29:31.633Z,99420.53
2023-05-05T13:31:58.830Z,99413.59
2023-05-05T13:34:25.977Z,99403.88
2023-05-05T13:36:52.705Z,99398.88
2023-05-05T13:39:19.366Z,99399.31
2023-05-05T13:41:46.055Z,99395.81
2023-05-05T13:44:14.915Z,99395.28
2023-05-05T13:46:42.710Z,99386.16
2023-05-05T13:49:09.547Z,99382.81
2023-05-05T13:51:36.970Z,99382.69
2023-05-05T13:54:03.915Z,99380.97
2023-05-05T13:56:30.681Z,99379.41
2023-05-05T13:58:57.317Z,99379.44
2023-05-05T14:01:24.063Z,99377.09
2023-05-05T14:03:50.932Z,99384.56
2023-05-05T14:06:17.649Z,99373.94
2023-05-05T14:08:44.406Z,99374.56
2023-05-05T14:11:11.110Z,99376.09
2023-05-05T14:13:38.052Z,99366.69
2023-05-05T14:16:05.760Z,99366.72
2023-05-05T14:18:32.583Z,99355.88
2023-05-05T14:20:59.186Z,99355.13
2023-05-05T14:23:25.858Z,99361.25
2023-05-05T14:25:52.515Z,99356.94
2023-05-05T14:28:19.221Z,99356.34
2023-05-05T14:30:46.653Z,99359.34
2023-05-05T14:33:13.236Z,99350.72
2023-05-05T14:35:39.981Z,99350.22
2023-05-05T14:38:06.578Z,99352.16
2023-05-05T14:40:33.233Z,99339.44
2023-05-05T14:43:00.168Z,99354.25
2023-05-05T14:45:29.436Z,99351.19
2023-05-05T14:47:56.117Z,99342.63
2023-05-05T14:50:22.715Z,99347.59
2023-05-05T14:52:49.342Z,99352.38
2023-05-05T14:55:15.958Z,99342.72
2023-05-05T14:57:42.585Z,99339.66
2023-05-05T15:00:11.262Z,99339.78
2023-05-05T15:02:38.039Z,99333.84
2023-05-05T15:05:05.109Z,99334.69
2023-05-05T15:07:31.794Z,99338.34
2023-05-05T15:09:58.452Z,99338.09
2023-05-05T15:12:27.621Z,99329.03
2023-05-05T15:14:55.414Z,99327.50
2023-05-05T15:17:22.304Z,99326.47
2023-05-05T15:19:49.019Z,99316.16
2023-05-05T15:22:15.709Z,99321.00
2023-05-05T15:24:42.366Z,99321.63
2023-05-05T15:27:09.244Z,99310.88
2023-05-05T15:29:35.885Z,99323.31
2023-05-05T15:32:02.533Z,99315.59
2023-05-05T15:34:29.162Z,99321.91
2023-05-05T15:36:56.074Z,99317.41
2023-05-05T15:39:22.762Z,99316.63
2023-05-05T15:41:49.395Z,99318.06
2023-05-05T15:44:16.048Z,99315.50
2023-05-05T15:46:42.719Z,99304.69
2023-05-05T15:49:09.414Z,99309.38
2023-05-05T15:51:36.202Z,99312.41
2023-05-05T15:54:02.888Z,99309.19
2023-05-05T15:56:29.711Z,99303.44
2023-05-05T15:58:56.891Z,99302.72
2023-05-05T16:01:23.503Z,99308.72
2023-05-05T16:03:50.359Z,99303.50
2023-05-05T16:06:16.933Z,99305.38
2023-05-05T16:08:43.620Z,99304.75
2023-05-05T16:11:10.635Z,99299.84
2023-05-05T16:13:39.091Z,99297.16
2023-05-05T16:16:06.835Z,99296.66
2023-05-05T16:18:33.690Z,99288.56
2023-05-05T16:21:00.331Z,99290.69
2023-05-05T16:23:26.926Z,99298.47
2023-05-05T16:25:53.494Z,99295.63
2023-05-05T16:28:20.108Z,99292.13
2023-05-05T16:30:46.880Z,99295.41
2023-05-05T16:33:13.669Z,99290.22
2023-05-05T16:35:40.416Z,99300.22
2023-05-05T16:38:07.024Z,99295.19
2023-05-05T16:40:37.101Z,99297.09
2023-05-05T16:43:04.473Z,99290.84
2023-05-05T16:45:31.352Z,99283.44
2023-05-05T16:47:57.961Z,99284.78
2023-05-05T16:50:24.606Z,99291.56
2023-05-05T16:52:51.425Z,99291.06
2023-05-05T16:55:18.256Z,99293.50
2023-05-05T16:57:44.854Z,99282.63
2023-05-05T17:00:12.186Z,99291.31
2023-05-05T17:02:38.824Z,99288.38
2023-05-05T17:05:06.236Z,99295.41
2023-05-05T17:07:33.105Z,99292.25
2023-05-05T17:09:59.748Z,99286.69
2023-05-05T17:12:26.409Z,99289.59
2023-05-05T17:14:53.029Z,99284.72
2023-05-05T17:17:19.709Z,99290.28
2023-05-05T17:19:46.292Z,99288.22
2023-05-05T17:22:12.968Z,99287.72
2023-05-05T17:24:39.617Z,99287.13
2023-05-05T17:27:06.446Z,99282.81
2023-05-05T17:29:36.732Z,99280.47
2023-05-05T17:32:03.684Z,99281.06
2023-05-05T17:34:30.439Z,99278.69
2023-05-05T17:36:57.018Z,99277.81
2023-05-05T17:39:23.745Z,99277.03
2023-05-05T17:41:51.514Z,99279.94
2023-05-05T17:44:18.105Z,99277.16
2023-05-05T17:46:44.666Z,99271.16
2023-05-05T17:49:11.237Z,99278.94
2023-05-05T17:51:38.505Z,99276.84
2023-05-05T17:54:05.369Z,99277.63
2023-05-05T17:56:31.925Z,99279.66
2023-05-05T17:58:58.527Z,99274.25
2023-05-05T18:01:26.569Z,99281.47
2023-05-05T18:03:53.359Z,99291.00
2023-05-05T18:06:20.126Z,99294.31
2023-05-05T18:08:46.770Z,99291.56
2023-05-05T18:11:13.435Z,99290.47
2023-05-05T18:13:40.140Z,99295.13
2023-05-05T18:16:07.138Z,99289.47
2023-05-05T18:18:35.323Z,99291.09
2023-05-05T18:21:01.974Z,99281.75
2023-05-05T18:23:28.698Z,99282.53
2023-05-05T18:25:55.384Z,99285.94
2023-05-05T18:28:21.956Z,99288.69
2023-05-05T18:30:48.729Z,99289.34
2023-05-05T18:33:15.951Z,99290.78
2023-05-05T18:35:42.521Z,99284.59
2023-05-05T18:38:09.135Z,99299.16
2023-05-05T18:40:35.774Z,99302.56
2023-05-05T18:43:02.367Z,99299.59
2023-05-05T18:45:29.047Z,99300.34
2023-05-05T18:47:56.369Z,99302.84
2023-05-05T18:50:23.139Z,99304.41
2023-05-05T18:52:49.733Z,99305.19
2023-05-05T18:55:16.325Z,99309.59
2023-05-05T18:57:42.915Z,99303.41
2023-05-05T19:00:10.295Z,99298.34
2023-05-05T19:02:37.710Z,99301.31
2023-05-05T19:05:04.895Z,99305.50
2023-05-05T19:07:34.898Z,99302.28
2023-05-05T19:10:04.298Z,99299.19
2023-05-05T19:12:30.966Z,99304.03
2023-05-05T19:14:57.833Z,99296.28
2023-05-05T19:17:24.393Z,99290.13
2023-05-05T19:19:51.664Z,99290.00
2023-05-05T19:22:18.326Z,99289.88
2023-05-05T19:24:44.925Z,99295.16
2023-05-05T19:27:15.472Z,99300.00
2023-05-05T19:29:43.213Z,99298.75
2023-05-05T19:32:09.869Z,99304.38
2023-05-05T19:34:36.729Z,99306.75
2023-05-05T19:37:03.360Z,99296.50
2023-05-05T19:39:30.046Z,99306.06
2023-05-05T19:41:56.598Z,99296.78
2023-05-05T19:44:23.784Z,99308.75
2023-05-05T19:46:52.658Z,99307.03
2023-05-05T19:49:19.428Z,99303.81
2023-05-05T19:51:47.600Z,99298.84
2023-05-05T19:54:14.329Z,99299.41
2023-05-05T19:56:41.001Z,99294.00
2023-05-05T19:59:07.654Z,99296.06
2023-05-05T20:01:35.216Z,99302.63
2023-05-05T20:04:03.243Z,99307.78
2023-05-05T20:06:29.853Z,99305.00
2023-05-05T20:08:56.472Z,99298.38
2023-05-05T20:11:25.772Z,99301.13
2023-05-05T20:13:53.025Z,99302.88
2023-05-05T20:16:20.043Z,99298.03
2023-05-05T20:18:47.004Z,99298.72
2023-05-05T20:21:14.758Z,99291.59
2023-05-05T20:23:42.798Z,99288.03
2023-05-05T20:26:09.639Z,99289.75
2023-05-05T20:28:36.868Z,99288.72
2023-05-05T20:31:03.592Z,99271.19
2023-05-05T20:33:30.364Z,99278.47
2023-05-05T20:35:57.148Z,99280.06
2023-05-05T20:38:23.946Z,99286.16
2023-05-05T20:40:52.043Z,99282.88
2023-05-05T20:43:19.648Z,99284.28
2023-05-05T20:45:46.544Z,99282.94
2023-05-05T20:48:13.147Z,99279.56
2023-05-05T20:50:42.851Z,99284.41
2023-05-05T20:53:13.932Z,99285.97
2023-05-05T20:55:41.032Z,99277.44
2023-05-05T20:58:07.637Z,99286.59
2023-05-05T21:00:34.416Z,99280.84
2023-05-05T21:03:02.601Z,99283.94
2023-05-05T21:05:29.508Z,99283.19
2023-05-05T21:07:57.269Z,99287.53
2023-05-05T21:10:25.050Z,99282.91
2023-05-05T21:12:51.766Z,99273.25
2023-05-05T21:15:18.419Z,99270.94
2023-05-05T21:17:45.141Z,99272.50
2023-05-05T21:20:12.495Z,99270.16
2023-05-05T21:22:39.383Z,99272.34
2023-05-05T21:25:16.760Z,99266.59
2023-05-05T21:27:43.854Z,99262.09
2023-05-05T21:30:11.773Z,99263.03
2023-05-05T21:32:39.740Z,99260.72
2023-05-05T21:35:07.905Z,99250.50
2023-05-05T21:37:34.924Z,99252.38
2023-05-05T21:40:01.693Z,99253.28
2023-05-05T21:42:31.685Z,99250.81
2023-05-05T21:44:58.291Z,99249.72
2023-05-05T21:47:24.977Z,99244.94
2023-05-05T21:49:51.571Z,99246.47
2023-05-05T21:52:18.222Z,99246.16
2023-05-05T21:54:44.990Z,99249.72
2023-05-05T21:57:11.659Z,99233.16
2023-05-05T21:59:38.317Z,99228.50
2023-05-05T22:02:04.983Z,99222.00
2023-05-05T22:04:31.583Z,99225.25
2023-05-05T22:06:58.258Z,99226.03
2023-05-05T22:09:24.844Z,99229.75
2023-05-05T22:11:51.514Z,99218.91
2023-05-05T22:14:18.158Z,99220.63
2023-05-05T22:16:44.867Z,99226.66
2023-05-05T22:19:11.570Z,99220.94
2023-05-05T22:21:38.178Z,99231.00
2023-05-05T22:24:05.302Z,99230.38
2023-05-05T22:26:31.871Z,99237.97
2023-05-05T22:28:58.476Z,99262.00
2023-05-05T22:31:25.094Z,99267.56
2023-05-05T22:33:51.634Z,99256.72
2023-05-05T22:36:18.303Z,99262.75
2023-05-05T22:38:44.933Z,99267.09
2023-05-05T22:41:11.558Z,99272.19
2023-05-05T22:43:38.897Z,99285.81
2023-05-05T22:46:05.809Z,99289.69
2023-05-05T22:48:32.416Z,99302.69
2023-05-05T22:50:59.829Z,99313.97
2023-05-05T22:53:26.549Z,99315.06
2023-05-05T22:55:53.173Z,99318.94
2023-05-05T22:58:20.905Z,99322.34
2023-05-05T23:00:47.523Z,99318.28
2023-05-05T23:03:14.439Z,99316.56
2023-05-05T23:05:41.123Z,99310.00
2023-05-05T23:08:07.716Z,99320.31
2023-05-05T23:10:34.344Z,99325.19
2023-05-05T23:13:01.033Z,99328.69
2023-05-05T23:15:28.630Z,99332.66
2023-05-05T23:17:55.428Z,99329.84
2023-05-05T23:20:22.201Z,99334.50
2023-05-05T23:22:48.899Z,99327.16
2023-05-05T23:25:15.631Z,99310.03
2023-05-05T23:27:42.234Z,99309.81
2023-05-05T23:30:09.584Z,99310.91
2023-05-05T23:32:36.392Z,99310.91
2023-05-05T23:35:03.137Z,99309.06
2023-05-05T23:37:29.766Z,99316.88
2023-05-05T23:39:56.787Z,99310.19
2023-05-05T23:42:24.444Z,99305.53
2023-05-05T23:44:51.084Z,99299.63
2023-05-05T23:47:17.798Z,99307.13
2023-05-05T23:49:44.436Z,99305.19
2023-05-05T23:52:11.278Z,99294.31
2023-05-05T23:54:37.969Z,99298.22
2023-05-05T23:57:04.660Z,99293.66
2023-05-05T23:59:31.233Z,99301.84
